Time,TemperatureF,DewpointF,PressureIn,WindDirection,WindDirectionDegrees,WindSpeedMPH,WindSpeedGustMPH,Humidity,HourlyPrecipIn,Conditions,Clouds,dailyrainin,SoftwareType,DateUTC
2013-09-28 00:00:00,41.4,36.6,30.34,NNW,337,0.0,0.0,83,0.00,,,0.00,VWS V14.01,2013-09-28 04:00:00,
2013-09-28 00:01:00,41.4,36.6,30.34,NNW,337,0.0,0.0,83,0.00,,,0.00,VWS V14.01,2013-09-28 04:01:00,
2013-09-28 00:02:00,41.4,36.6,30.34,NNW,337,0.0,0.0,83,0.00,,,0.00,VWS V14.01,2013-09-28 04:02:00,
2013-09-28 00:07:00,41.4,36.6,30.34,NNW,337,0.0,0.0,83,0.00,,,0.00,VWS V14.01,2013-09-28 04:07:00,
2013-09-28 00:12:00,41.4,36.6,30.34,NNW,337,0.0,0.0,83,0.00,,,0.00,VWS V14.01,2013-09-28 04:12:00,
2013-09-28 00:17:00,41.5,37.1,30.34,NNW,337,0.0,0.0,84,0.00,,,0.00,VWS V14.01,2013-09-28 04:17:00,
2013-09-28 00:22:00,41.5,37.1,30.34,NNW,337,0.0,0.0,84,0.00,,,0.00,VWS V14.01,2013-09-28 04:22:00,
2013-09-28 00:27:00,41.4,36.9,30.34,NNW,337,0.0,0.0,84,0.00,,,0.00,VWS V14.01,2013-09-28 04:27:00,
2013-09-28 00:32:00,41.4,36.9,30.34,NNW,337,0.0,0.0,84,0.00,,,0.00,VWS V14.01,2013-09-28 04:32:00,
2013-09-28 00:37:00,41.2,36.7,30.34,NNW,337,0.0,0.0,84,0.00,,,0.00,VWS V14.01,2013-09-28 04:37:00,
2013-09-28 00:42:00,41.0,36.5,30.34,NNW,337,0.0,0.0,84,0.00,,,0.00,VWS V14.01,2013-09-28 04:42:00,
2013-09-28 00:47:00,40.6,36.2,30.34,NNW,337,0.0,0.0,84,0.00,,,0.00,VWS V14.01,2013-09-28 04:47:00,
2013-09-28 00:52:00,40.6,36.2,30.34,NNW,337,0.0,0.0,84,0.00,,,0.00,VWS V14.01,2013-09-28 04:52:00,
2013-09-28 00:57:00,40.5,36.3,30.34,NNW,337,0.0,0.0,85,0.00,,,0.00,VWS V14.01,2013-09-28 04:57:00,
2013-09-28 01:02:00,40.5,36.3,30.34,NNW,337,0.0,0.0,85,0.00,,,0.00,VWS V14.01,2013-09-28 05:02:00,
2013-09-28 01:07:00,40.6,36.5,30.34,NNW,337,0.0,0.0,85,0.00,,,0.00,VWS V14.01,2013-09-28 05:07:00,
2013-09-28 01:12:00,40.6,36.5,30.34,NNW,337,0.0,0.0,85,0.00,,,0.00,VWS V14.01,2013-09-28 05:12:00,
2013-09-28 01:17:00,41.0,36.8,30.34,NNW,337,0.0,0.0,85,0.00,,,0.00,VWS V14.01,2013-09-28 05:17:00,
2013-09-28 01:22:00,41.2,37.0,30.34,NNW,337,0.0,0.0,85,0.00,,,0.00,VWS V14.01,2013-09-28 05:22:00,
2013-09-28 01:27:00,41.2,37.0,30.34,NNW,337,0.0,0.0,85,0.00,,,0.00,VWS V14.01,2013-09-28 05:27:00,
2013-09-28 01:33:00,41.2,37.0,30.34,NNW,337,0.0,0.0,85,0.00,,,0.00,VWS V14.01,2013-09-28 05:33:00,
2013-09-28 01:38:00,41.2,37.0,30.34,NNW,337,0.0,0.0,85,0.00,,,0.00,VWS V14.01,2013-09-28 05:38:00,
2013-09-28 01:43:00,41.0,36.8,30.34,NNW,337,0.0,0.0,85,0.00,,BKN001,0.00,VWS V14.01,2013-09-28 05:43:00,
2013-09-28 01:48:00,40.8,37.0,30.37,NNW,337,0.0,0.0,86,0.00,,BKN001,0.00,VWS V14.01,2013-09-28 05:48:00,
2013-09-28 01:53:00,40.8,37.0,30.37,NNW,337,0.0,0.0,86,0.00,,BKN001,0.00,VWS V14.01,2013-09-28 05:53:00,
2013-09-28 01:58:00,40.8,37.0,30.37,NNW,337,0.0,0.0,86,0.00,,BKN001,0.00,VWS V14.01,2013-09-28 05:58:00,
2013-09-28 02:03:00,40.8,37.0,30.37,NNW,337,0.0,0.0,86,0.00,,BKN001,0.00,VWS V14.01,2013-09-28 06:03:00,
2013-09-28 02:08:00,41.0,37.1,30.37,NNW,337,0.0,0.0,86,0.00,,BKN001,0.00,VWS V14.01,2013-09-28 06:08:00,
2013-09-28 02:13:00,41.2,37.3,30.37,NNW,337,0.0,0.0,86,0.00,,BKN001,0.00,VWS V14.01,2013-09-28 06:13:00,
2013-09-28 02:18:00,41.7,38.1,30.37,NNW,337,0.0,0.0,87,0.00,,BKN001,0.00,VWS V14.01,2013-09-28 06:18:00,
2013-09-28 02:23:00,41.7,38.1,30.37,NNW,337,0.0,0.0,87,0.00,,BKN001,0.00,VWS V14.01,2013-09-28 06:23:00,
2013-09-28 02:28:00,41.9,38.3,30.37,NNW,337,0.0,0.0,87,0.00,,BKN001,0.00,VWS V14.01,2013-09-28 06:28:00,
2013-09-28 02:33:00,42.1,38.5,30.37,NNW,337,0.0,0.0,87,0.00,,BKN001,0.00,VWS V14.01,2013-09-28 06:33:00,
2013-09-28 02:38:00,42.1,38.5,30.37,NNW,337,0.0,0.0,87,0.00,,BKN001,0.00,VWS V14.01,2013-09-28 06:38:00,
2013-09-28 02:43:00,42.3,38.7,30.37,NNW,337,0.0,0.0,87,0.00,,,0.00,VWS V14.01,2013-09-28 06:43:00,
2013-09-28 02:48:00,42.3,38.7,30.37,NNW,337,0.0,0.0,87,0.00,,,0.00,VWS V14.01,2013-09-28 06:48:00,
2013-09-28 02:53:00,42.3,38.7,30.37,NNW,337,0.0,0.0,87,0.00,,,0.00,VWS V14.01,2013-09-28 06:53:00,
2013-09-28 02:58:00,42.3,38.7,30.37,NNW,337,0.0,0.0,87,0.00,,,0.00,VWS V14.01,2013-09-28 06:58:00,
2013-09-28 03:03:00,42.3,38.7,30.37,NNW,337,0.0,0.0,87,0.00,,,0.00,VWS V14.01,2013-09-28 07:03:00,
2013-09-28 03:08:00,42.4,38.8,30.37,NNW,337,0.0,0.0,87,0.00,,,0.00,VWS V14.01,2013-09-28 07:08:00,
2013-09-28 03:13:00,42.4,38.8,30.37,NNW,337,0.0,0.0,87,0.00,,,0.00,VWS V14.01,2013-09-28 07:13:00,
2013-09-28 03:18:00,42.6,39.3,30.37,NNW,337,0.0,0.0,88,0.00,,,0.00,VWS V14.01,2013-09-28 07:18:00,
2013-09-28 03:23:00,42.8,39.2,30.37,NNW,337,0.0,0.0,87,0.00,,,0.00,VWS V14.01,2013-09-28 07:23:00,
2013-09-28 03:28:00,42.8,39.2,30.37,NNW,337,0.0,0.0,87,0.00,,,0.00,VWS V14.01,2013-09-28 07:28:00,
2013-09-28 03:33:00,42.8,39.2,30.37,NNW,337,0.0,0.0,87,0.00,,,0.00,VWS V14.01,2013-09-28 07:33:00,
2013-09-28 03:38:00,42.8,39.2,30.37,NNW,337,0.0,0.0,87,0.00,,,0.00,VWS V14.01,2013-09-28 07:38:00,
2013-09-28 03:43:00,42.6,39.3,30.37,NNW,337,0.0,0.0,88,0.00,,,0.00,VWS V14.01,2013-09-28 07:43:00,
2013-09-28 03:48:00,42.6,39.3,30.37,NNW,337,0.0,0.0,88,0.00,,,0.00,VWS V14.01,2013-09-28 07:48:00,
2013-09-28 03:53:00,42.6,39.3,30.37,NNW,337,0.0,0.0,88,0.00,,,0.00,VWS V14.01,2013-09-28 07:53:00,
2013-09-28 03:58:00,42.8,39.2,30.37,NNW,337,0.0,0.0,87,0.00,,,0.00,VWS V14.01,2013-09-28 07:58:00,
2013-09-28 04:03:00,42.8,39.5,30.37,NNW,337,0.0,0.0,88,0.00,,,0.00,VWS V14.01,2013-09-28 08:03:00,
2013-09-28 04:08:00,42.8,39.5,30.37,NNW,337,0.0,0.0,88,0.00,,,0.00,VWS V14.01,2013-09-28 08:08:00,
2013-09-28 04:13:00,42.8,39.5,30.37,NNW,337,0.0,0.0,88,0.00,,,0.00,VWS V14.01,2013-09-28 08:13:00,
2013-09-28 04:19:00,42.8,39.5,30.37,NNW,337,0.0,0.0,88,0.00,,,0.00,VWS V14.01,2013-09-28 08:19:00,
2013-09-28 04:24:00,42.8,39.5,30.37,NNW,337,0.0,0.0,88,0.00,,,0.00,VWS V14.01,2013-09-28 08:24:00,
2013-09-28 04:29:00,42.8,39.5,30.37,NNW,337,0.0,0.0,88,0.00,,,0.00,VWS V14.01,2013-09-28 08:29:00,
2013-09-28 04:34:00,43.0,39.7,30.37,NNW,337,0.0,0.0,88,0.00,,,0.00,VWS V14.01,2013-09-28 08:34:00,
2013-09-28 04:39:00,43.0,39.7,30.37,NNW,337,0.0,0.0,88,0.00,,,0.00,VWS V14.01,2013-09-28 08:39:00,
2013-09-28 04:44:00,43.0,39.7,30.37,NNW,337,0.0,0.0,88,0.00,,,0.00,VWS V14.01,2013-09-28 08:44:00,
2013-09-28 04:49:00,43.0,39.7,30.37,NNW,337,0.0,0.0,88,0.00,,,0.00,VWS V14.01,2013-09-28 08:49:00,
2013-09-28 04:54:00,43.0,39.7,30.37,NNW,337,0.0,0.0,88,0.00,,,0.00,VWS V14.01,2013-09-28 08:54:00,
2013-09-28 04:59:00,43.0,39.7,30.37,NNW,337,0.0,0.0,88,0.00,,,0.00,VWS V14.01,2013-09-28 08:59:00,
2013-09-28 05:04:00,42.6,39.6,30.37,NNW,337,0.0,0.0,89,0.00,,,0.00,VWS V14.01,2013-09-28 09:04:00,
2013-09-28 05:09:00,42.6,39.6,30.37,NNW,337,0.0,0.0,89,0.00,,,0.00,VWS V14.01,2013-09-28 09:09:00,
2013-09-28 05:14:00,42.4,39.4,30.37,NNW,337,0.0,0.0,89,0.00,,,0.00,VWS V14.01,2013-09-28 09:14:00,
2013-09-28 05:19:00,42.3,39.3,30.37,NNW,337,0.0,0.0,89,0.00,,,0.00,VWS V14.01,2013-09-28 09:19:00,
2013-09-28 05:24:00,42.3,39.3,30.37,NNW,337,0.0,0.0,89,0.00,,,0.00,VWS V14.01,2013-09-28 09:24:00,
2013-09-28 05:29:00,42.3,39.3,30.37,NNW,337,0.0,0.0,89,0.00,,,0.00,VWS V14.01,2013-09-28 09:29:00,
2013-09-28 05:34:00,42.3,39.3,30.37,NNW,337,0.0,0.0,89,0.00,,,0.00,VWS V14.01,2013-09-28 09:34:00,
2013-09-28 05:39:00,42.3,39.3,30.37,NNW,337,0.0,0.0,89,0.00,,,0.00,VWS V14.01,2013-09-28 09:39:00,
2013-09-28 05:44:00,42.3,39.3,30.37,NNW,337,0.0,0.0,89,0.00,,,0.00,VWS V14.01,2013-09-28 09:44:00,
2013-09-28 05:49:00,41.9,38.9,30.37,NNW,337,0.0,0.0,89,0.00,,,0.00,VWS V14.01,2013-09-28 09:49:00,
2013-09-28 05:54:00,41.9,38.9,30.37,NNW,337,0.0,0.0,89,0.00,,,0.00,VWS V14.01,2013-09-28 09:54:00,
2013-09-28 05:59:00,41.9,39.2,30.37,NNW,337,0.0,0.0,90,0.00,,,0.00,VWS V14.01,2013-09-28 09:59:00,
2013-09-28 06:05:00,41.9,39.2,30.37,NNW,337,0.0,0.0,90,0.00,,,0.00,VWS V14.01,2013-09-28 10:05:00,
2013-09-28 06:10:00,41.9,39.2,30.37,NNW,337,0.0,0.0,90,0.00,,,0.00,VWS V14.01,2013-09-28 10:10:00,
2013-09-28 06:15:00,41.9,39.2,30.37,NNW,337,0.0,0.0,90,0.00,,,0.00,VWS V14.01,2013-09-28 10:15:00,
2013-09-28 06:20:00,41.9,39.2,30.37,NNW,337,0.0,0.0,90,0.00,,,0.00,VWS V14.01,2013-09-28 10:20:00,
2013-09-28 06:25:00,41.9,39.2,30.37,NNW,337,0.0,0.0,90,0.00,,,0.00,VWS V14.01,2013-09-28 10:25:00,
2013-09-28 06:30:00,41.9,39.2,30.37,NNW,337,0.0,0.0,90,0.00,,,0.00,VWS V14.01,2013-09-28 10:30:00,
2013-09-28 06:35:00,41.9,39.2,30.37,NNW,337,0.0,0.0,90,0.00,,,0.00,VWS V14.01,2013-09-28 10:35:00,
2013-09-28 06:40:00,41.9,39.2,30.37,NNW,337,0.0,0.0,90,0.00,,,0.00,VWS V14.01,2013-09-28 10:40:00,
2013-09-28 06:45:00,41.9,39.2,30.37,NNW,337,0.0,0.0,90,0.00,,,0.00,VWS V14.01,2013-09-28 10:45:00,
2013-09-28 06:50:00,42.1,39.4,30.37,NNW,337,0.0,0.0,90,0.00,,,0.00,VWS V14.01,2013-09-28 10:50:00,
2013-09-28 06:55:00,42.1,39.4,30.37,NNW,337,0.0,0.0,90,0.00,,,0.00,VWS V14.01,2013-09-28 10:55:00,
2013-09-28 07:00:00,41.5,38.8,30.37,NNW,337,0.0,0.0,90,0.00,,,0.00,VWS V14.01,2013-09-28 11:00:00,
2013-09-28 07:05:00,41.5,38.8,30.37,NNW,337,0.0,0.0,90,0.00,,,0.00,VWS V14.01,2013-09-28 11:05:00,
2013-09-28 07:10:00,41.4,38.7,30.37,NNW,337,0.0,0.0,90,0.00,,,0.00,VWS V14.01,2013-09-28 11:10:00,
2013-09-28 07:15:00,41.4,38.7,30.37,NNW,337,0.0,0.0,90,0.00,,,0.00,VWS V14.01,2013-09-28 11:15:00,
2013-09-28 07:20:00,41.2,38.5,30.37,NNW,337,0.0,0.0,90,0.00,,,0.00,VWS V14.01,2013-09-28 11:20:00,
2013-09-28 07:25:00,41.2,38.8,30.37,NNW,337,0.0,0.0,91,0.00,,,0.00,VWS V14.01,2013-09-28 11:25:00,
2013-09-28 07:30:00,41.2,38.8,30.37,NNW,337,0.0,0.0,91,0.00,,,0.00,VWS V14.01,2013-09-28 11:30:00,
2013-09-28 07:35:00,41.2,38.8,30.37,NNW,337,0.0,0.0,91,0.00,,,0.00,VWS V14.01,2013-09-28 11:35:00,
2013-09-28 07:40:00,41.2,38.8,30.37,NNW,337,0.0,0.0,91,0.00,,,0.00,VWS V14.01,2013-09-28 11:40:00,
2013-09-28 07:45:00,41.7,39.3,30.37,NNW,337,0.0,0.0,91,0.00,,,0.00,VWS V14.01,2013-09-28 11:45:00,
2013-09-28 07:50:00,41.7,39.3,30.37,NNW,337,0.0,0.0,91,0.00,,,0.00,VWS V14.01,2013-09-28 11:50:00,
2013-09-28 07:55:00,41.7,39.3,30.37,NNW,337,0.0,0.0,91,0.00,,,0.00,VWS V14.01,2013-09-28 11:55:00,
2013-09-28 08:00:00,41.7,39.3,30.37,NNW,337,0.0,0.0,91,0.00,,,0.00,VWS V14.01,2013-09-28 12:00:00,
2013-09-28 08:05:00,41.7,39.3,30.37,NNW,337,0.0,0.0,91,0.00,,,0.00,VWS V14.01,2013-09-28 12:05:00,
2013-09-28 08:10:00,42.3,40.1,30.40,NNW,337,0.0,0.0,92,0.00,,,0.00,VWS V14.01,2013-09-28 12:10:00,
2013-09-28 08:15:00,42.4,40.3,30.40,NNW,337,0.0,0.0,92,0.00,,,0.00,VWS V14.01,2013-09-28 12:15:00,
2013-09-28 08:20:00,42.4,40.3,30.40,NNW,337,0.0,0.0,92,0.00,,,0.00,VWS V14.01,2013-09-28 12:20:00,
2013-09-28 08:25:00,42.4,40.3,30.40,NNW,337,0.0,0.0,92,0.00,,,0.00,VWS V14.01,2013-09-28 12:25:00,
2013-09-28 08:30:00,42.4,40.3,30.40,NNW,337,0.0,0.0,92,0.00,,,0.00,VWS V14.01,2013-09-28 12:30:00,
2013-09-28 08:35:00,42.8,40.4,30.40,NNW,337,0.0,0.0,91,0.00,,,0.00,VWS V14.01,2013-09-28 12:35:00,
2013-09-28 08:40:00,42.8,40.4,30.40,NNW,337,0.0,0.0,91,0.00,,,0.00,VWS V14.01,2013-09-28 12:40:00,
2013-09-28 08:45:00,43.5,41.3,30.40,NNW,337,0.0,0.0,92,0.00,,,0.00,VWS V14.01,2013-09-28 12:45:00,
2013-09-28 08:51:00,43.5,41.3,30.40,NNW,337,0.0,0.0,92,0.00,,FEW001,0.00,VWS V14.01,2013-09-28 12:51:00,
2013-09-28 08:56:00,44.1,41.9,30.40,NNW,337,0.0,0.0,92,0.00,,FEW001,0.00,VWS V14.01,2013-09-28 12:56:00,
2013-09-28 09:01:00,44.1,41.9,30.40,NNW,337,0.0,0.0,92,0.00,,FEW001,0.00,VWS V14.01,2013-09-28 13:01:00,
2013-09-28 09:06:00,44.8,42.6,30.40,NNW,337,0.0,0.0,92,0.00,,FEW001,0.00,VWS V14.01,2013-09-28 13:06:00,
2013-09-28 09:11:00,44.8,42.6,30.40,NNW,337,0.0,0.0,92,0.00,,FEW001,0.00,VWS V14.01,2013-09-28 13:11:00,
2013-09-28 09:16:00,45.5,43.3,30.40,NNW,337,0.0,0.0,92,0.00,,FEW001,0.00,VWS V14.01,2013-09-28 13:16:00,
2013-09-28 09:21:00,45.9,43.7,30.40,NNW,337,0.0,0.0,92,0.00,,FEW001,0.00,VWS V14.01,2013-09-28 13:21:00,
2013-09-28 09:26:00,46.0,43.8,30.40,NNW,337,0.0,0.0,92,0.00,,FEW001,0.00,VWS V14.01,2013-09-28 13:26:00,
2013-09-28 09:31:00,46.0,43.8,30.40,NNW,337,0.0,0.0,92,0.00,,FEW001,0.00,VWS V14.01,2013-09-28 13:31:00,
2013-09-28 09:36:00,46.0,43.8,30.40,NNW,337,0.0,0.0,92,0.00,,FEW001,0.00,VWS V14.01,2013-09-28 13:36:00,
2013-09-28 09:41:00,46.0,43.8,30.40,NNW,337,0.0,0.0,92,0.00,,CLR,0.00,VWS V14.01,2013-09-28 13:41:00,
2013-09-28 09:46:00,46.9,44.7,30.40,NNW,337,0.0,0.0,92,0.00,,CLR,0.00,VWS V14.01,2013-09-28 13:46:00,
2013-09-28 09:51:00,46.9,44.7,30.40,NNW,337,0.0,0.0,92,0.00,,CLR,0.00,VWS V14.01,2013-09-28 13:51:00,
2013-09-28 09:56:00,46.9,44.7,30.40,NNW,337,0.0,0.0,92,0.00,,CLR,0.00,VWS V14.01,2013-09-28 13:56:00,
2013-09-28 10:01:00,46.9,44.7,30.40,NNW,337,0.0,0.0,92,0.00,,CLR,0.00,VWS V14.01,2013-09-28 14:01:00,
2013-09-28 10:06:00,49.6,47.4,30.40,NNW,337,0.0,0.0,92,0.00,,CLR,0.00,VWS V14.01,2013-09-28 14:06:00,
2013-09-28 10:11:00,49.6,47.4,30.40,NNW,337,0.0,0.0,92,0.00,,CLR,0.00,VWS V14.01,2013-09-28 14:11:00,
2013-09-28 10:16:00,49.6,47.4,30.40,NNW,337,0.0,0.0,92,0.00,,CLR,0.00,VWS V14.01,2013-09-28 14:16:00,
2013-09-28 10:21:00,49.6,47.4,30.40,NNW,337,0.0,0.0,92,0.00,,CLR,0.00,VWS V14.01,2013-09-28 14:21:00,
2013-09-28 10:26:00,51.6,49.4,30.40,NNW,337,0.0,0.0,92,0.00,,CLR,0.00,VWS V14.01,2013-09-28 14:26:00,
2013-09-28 10:31:00,52.2,49.6,30.40,NNW,337,0.0,0.0,91,0.00,,CLR,0.00,VWS V14.01,2013-09-28 14:31:00,
2013-09-28 10:36:00,52.2,49.6,30.40,NNW,337,0.0,0.0,91,0.00,,CLR,0.00,VWS V14.01,2013-09-28 14:36:00,
2013-09-28 10:41:00,53.1,50.5,30.40,NNW,337,0.0,0.0,91,0.00,,CLR,0.00,VWS V14.01,2013-09-28 14:41:00,
2013-09-28 10:46:00,53.1,50.5,30.40,NNW,337,0.0,0.0,91,0.00,,CLR,0.00,VWS V14.01,2013-09-28 14:46:00,
2013-09-28 10:51:00,53.1,50.5,30.40,NNW,337,0.0,0.0,91,0.00,,CLR,0.00,VWS V14.01,2013-09-28 14:51:00,
2013-09-28 10:56:00,55.4,52.8,30.37,NNE,31,0.0,0.0,91,0.00,,CLR,0.00,VWS V14.01,2013-09-28 14:56:00,
2013-09-28 11:01:00,57.2,54.3,30.37,NNW,340,0.0,0.0,90,0.00,,CLR,0.00,VWS V14.01,2013-09-28 15:01:00,
2013-09-28 11:06:00,57.2,54.3,30.37,NNW,340,0.0,0.0,90,0.00,,CLR,0.00,VWS V14.01,2013-09-28 15:06:00,
2013-09-28 11:11:00,60.6,57.7,30.37,NNW,340,0.0,0.0,90,0.00,,CLR,0.00,VWS V14.01,2013-09-28 15:11:00,
2013-09-28 11:16:00,63.0,59.4,30.37,NE,35,0.0,0.0,88,0.00,,CLR,0.00,VWS V14.01,2013-09-28 15:16:00,
2013-09-28 11:22:00,63.0,59.4,30.37,NE,35,0.0,0.0,88,0.00,,CLR,0.00,VWS V14.01,2013-09-28 15:22:00,
2013-09-28 11:27:00,64.8,60.5,30.37,SSE,163,0.0,0.0,86,0.00,,CLR,0.00,VWS V14.01,2013-09-28 15:27:00,
2013-09-28 11:32:00,64.8,60.5,30.37,SSE,155,0.0,0.0,86,0.00,,CLR,0.00,VWS V14.01,2013-09-28 15:32:00,
2013-09-28 11:37:00,64.8,60.5,30.37,South,185,4.0,4.0,86,0.00,,CLR,0.00,VWS V14.01,2013-09-28 15:37:00,
2013-09-28 11:42:00,67.3,60.9,30.37,SSE,168,3.6,3.6,80,0.00,,CLR,0.00,VWS V14.01,2013-09-28 15:42:00,
2013-09-28 11:47:00,68.0,60.9,30.37,SSE,167,0.0,3.6,78,0.00,,CLR,0.00,VWS V14.01,2013-09-28 15:47:00,
2013-09-28 11:52:00,68.7,60.9,30.37,South,182,4.9,4.9,76,0.00,,CLR,0.00,VWS V14.01,2013-09-28 15:52:00,
2013-09-28 11:57:00,69.1,60.5,30.37,South,190,5.4,5.4,74,0.00,,CLR,0.00,VWS V14.01,2013-09-28 15:57:00,
2013-09-28 12:02:00,69.4,59.2,30.37,South,182,5.4,5.4,70,0.00,,CLR,0.00,VWS V14.01,2013-09-28 16:02:00,
2013-09-28 12:07:00,69.1,56.8,30.37,SE,130,4.0,5.4,65,0.00,,CLR,0.00,VWS V14.01,2013-09-28 16:07:00,
2013-09-28 12:12:00,69.4,56.3,30.37,SSE,162,4.0,4.0,63,0.00,,CLR,0.00,VWS V14.01,2013-09-28 16:12:00,
2013-09-28 12:17:00,69.4,56.3,30.37,SSE,155,3.6,5.4,63,0.00,,CLR,0.00,VWS V14.01,2013-09-28 16:17:00,
2013-09-28 12:22:00,69.4,53.1,30.37,SSE,165,5.4,5.4,56,0.00,,CLR,0.00,VWS V14.01,2013-09-28 16:22:00,
2013-09-28 12:27:00,69.4,48.9,30.37,SSE,168,4.0,5.4,48,0.00,,CLR,0.00,VWS V14.01,2013-09-28 16:27:00,
2013-09-28 12:32:00,69.4,48.9,30.37,SSW,198,4.9,4.9,48,0.00,,CLR,0.00,VWS V14.01,2013-09-28 16:32:00,
2013-09-28 12:37:00,69.3,46.4,30.37,SSE,149,4.0,4.9,44,0.00,,CLR,0.00,VWS V14.01,2013-09-28 16:37:00,
2013-09-28 12:42:00,69.3,46.4,30.37,SSE,153,2.7,4.9,44,0.00,,CLR,0.00,VWS V14.01,2013-09-28 16:42:00,
2013-09-28 12:47:00,69.3,46.4,30.37,South,169,5.4,5.4,44,0.00,,CLR,0.00,VWS V14.01,2013-09-28 16:47:00,
2013-09-28 12:52:00,68.7,40.7,30.37,South,169,5.8,5.8,36,0.00,,CLR,0.00,VWS V14.01,2013-09-28 16:52:00,
2013-09-28 12:57:00,68.5,40.5,30.37,SE,146,3.6,5.8,36,0.00,,CLR,0.00,VWS V14.01,2013-09-28 16:57:00,
2013-09-28 13:02:00,68.0,39.3,30.37,SSE,165,4.0,5.4,35,0.00,,CLR,0.00,VWS V14.01,2013-09-28 17:02:00,
2013-09-28 13:07:00,67.8,39.9,30.37,SSE,164,4.0,5.4,36,0.00,,CLR,0.00,VWS V14.01,2013-09-28 17:07:00,
2013-09-28 13:12:00,67.5,38.9,30.37,SSE,160,4.0,6.3,35,0.00,,CLR,0.00,VWS V14.01,2013-09-28 17:12:00,
2013-09-28 13:17:00,67.5,39.6,30.37,South,181,3.6,6.3,36,0.00,,CLR,0.00,VWS V14.01,2013-09-28 17:17:00,
2013-09-28 13:22:00,67.5,39.6,30.37,South,178,2.7,2.7,36,0.00,,CLR,0.00,VWS V14.01,2013-09-28 17:22:00,
2013-09-28 13:28:00,67.6,39.8,30.37,South,173,3.1,3.1,36,0.00,,CLR,0.00,VWS V14.01,2013-09-28 17:28:00,
2013-09-28 13:33:00,67.6,39.8,30.37,SSE,153,3.6,4.9,36,0.00,,CLR,0.00,VWS V14.01,2013-09-28 17:33:00,
2013-09-28 13:38:00,68.7,40.0,30.37,SSE,162,4.5,5.4,35,0.00,,CLR,0.00,VWS V14.01,2013-09-28 17:38:00,
2013-09-28 13:43:00,68.7,40.0,30.37,South,191,5.8,5.8,35,0.00,,CLR,0.00,VWS V14.01,2013-09-28 17:43:00,
2013-09-28 13:48:00,69.1,39.6,30.37,SSE,161,3.1,5.8,34,0.00,,CLR,0.00,VWS V14.01,2013-09-28 17:48:00,
2013-09-28 13:53:00,69.4,39.9,30.37,SSE,158,6.3,6.3,34,0.00,,CLR,0.00,VWS V14.01,2013-09-28 17:53:00,
2013-09-28 13:58:00,69.6,40.0,30.37,South,170,5.4,6.3,34,0.00,,CLR,0.00,VWS V14.01,2013-09-28 17:58:00,
2013-09-28 14:03:00,70.0,40.3,30.37,SSE,164,5.4,5.4,34,0.00,,CLR,0.00,VWS V14.01,2013-09-28 18:03:00,
2013-09-28 14:08:00,70.0,40.3,30.37,SSE,162,3.1,5.8,34,0.00,,CLR,0.00,VWS V14.01,2013-09-28 18:08:00,
2013-09-28 14:13:00,70.0,40.3,30.37,SSE,153,5.4,5.4,34,0.00,,CLR,0.00,VWS V14.01,2013-09-28 18:13:00,
2013-09-28 14:18:00,70.0,40.3,30.37,SE,129,4.9,5.4,34,0.00,,CLR,0.00,VWS V14.01,2013-09-28 18:18:00,
2013-09-28 14:23:00,70.3,39.9,30.37,ESE,116,0.0,5.4,33,0.00,,CLR,0.00,VWS V14.01,2013-09-28 18:23:00,
2013-09-28 14:28:00,70.5,40.1,30.37,SSE,149,5.8,5.8,33,0.00,,CLR,0.00,VWS V14.01,2013-09-28 18:28:00,
2013-09-28 14:33:00,70.7,40.2,30.37,South,179,6.3,6.3,33,0.00,,CLR,0.00,VWS V14.01,2013-09-28 18:33:00,
2013-09-28 14:38:00,70.5,40.1,30.37,SSW,208,0.0,6.3,33,0.00,,CLR,0.00,VWS V14.01,2013-09-28 18:38:00,
2013-09-28 14:43:00,70.5,40.1,30.37,SSE,164,5.8,5.8,33,0.00,,CLR,0.00,VWS V14.01,2013-09-28 18:43:00,
2013-09-28 14:48:00,70.7,40.2,30.37,SSE,149,2.7,5.8,33,0.00,,CLR,0.00,VWS V14.01,2013-09-28 18:48:00,
2013-09-28 14:53:00,71.1,39.7,30.37,SE,136,3.1,3.1,32,0.00,,CLR,0.00,VWS V14.01,2013-09-28 18:53:00,
2013-09-28 14:58:00,71.1,39.7,30.37,SSE,152,3.1,4.9,32,0.00,,CLR,0.00,VWS V14.01,2013-09-28 18:58:00,
2013-09-28 15:03:00,71.1,39.7,30.37,South,179,4.0,4.0,32,0.00,,CLR,0.00,VWS V14.01,2013-09-28 19:03:00,
2013-09-28 15:08:00,71.1,39.7,30.37,SSE,162,0.0,5.8,32,0.00,,CLR,0.00,VWS V14.01,2013-09-28 19:08:00,
2013-09-28 15:13:00,71.1,39.7,30.37,SSE,162,0.0,0.0,32,0.00,,CLR,0.00,VWS V14.01,2013-09-28 19:13:00,
2013-09-28 15:18:00,71.1,39.7,30.37,South,182,3.6,6.3,32,0.00,,CLR,0.00,VWS V14.01,2013-09-28 19:18:00,
2013-09-28 15:23:00,70.9,39.6,30.37,SW,223,2.7,3.6,32,0.00,,CLR,0.00,VWS V14.01,2013-09-28 19:23:00,
2013-09-28 15:28:00,70.5,39.3,30.37,SSE,162,3.1,4.9,32,0.00,,CLR,0.00,VWS V14.01,2013-09-28 19:28:00,
2013-09-28 15:33:00,70.5,39.3,30.37,SSE,158,3.6,5.8,32,0.00,,CLR,0.00,VWS V14.01,2013-09-28 19:33:00,
2013-09-28 15:38:00,70.2,39.0,30.37,South,175,2.7,5.8,32,0.00,,CLR,0.00,VWS V14.01,2013-09-28 19:38:00,
2013-09-28 15:43:00,70.2,39.0,30.37,SSE,168,0.0,2.7,32,0.00,,CLR,0.00,VWS V14.01,2013-09-28 19:43:00,
2013-09-28 15:48:00,69.8,38.6,30.37,SSE,151,7.2,7.2,32,0.00,,CLR,0.00,VWS V14.01,2013-09-28 19:48:00,
2013-09-28 15:53:00,69.6,38.5,30.37,SE,146,0.0,4.9,32,0.00,,CLR,0.00,VWS V14.01,2013-09-28 19:53:00,
2013-09-28 15:58:00,69.4,38.3,30.37,SSE,167,0.0,4.9,32,0.00,,CLR,0.00,VWS V14.01,2013-09-28 19:58:00,
2013-09-28 16:03:00,69.3,38.2,30.37,NNW,337,0.0,0.0,32,0.00,,CLR,0.00,VWS V14.01,2013-09-28 20:03:00,
2013-09-28 16:08:00,69.3,38.2,30.37,ESE,104,0.0,0.0,32,0.00,,CLR,0.00,VWS V14.01,2013-09-28 20:08:00,
2013-09-28 16:13:00,68.9,37.8,30.37,ENE,61,0.0,0.0,32,0.00,,CLR,0.00,VWS V14.01,2013-09-28 20:13:00,
2013-09-28 16:18:00,68.9,37.8,30.37,SSE,164,4.0,4.0,32,0.00,,CLR,0.00,VWS V14.01,2013-09-28 20:18:00,
2013-09-28 16:23:00,68.9,37.8,30.37,South,169,2.2,2.7,32,0.00,,CLR,0.00,VWS V14.01,2013-09-28 20:23:00,
2013-09-28 16:28:00,68.5,37.5,30.37,South,169,2.2,2.7,32,0.00,,CLR,0.00,VWS V14.01,2013-09-28 20:28:00,
2013-09-28 16:33:00,68.5,37.5,30.37,SSE,162,0.0,2.2,32,0.00,,CLR,0.00,VWS V14.01,2013-09-28 20:33:00,
2013-09-28 16:38:00,68.4,37.4,30.37,SSE,162,0.0,2.2,32,0.00,,CLR,0.00,VWS V14.01,2013-09-28 20:38:00,
2013-09-28 16:43:00,68.2,37.2,30.37,ESE,116,0.0,0.0,32,0.00,,SCT055,0.00,VWS V14.01,2013-09-28 20:43:00,
2013-09-28 16:48:00,68.4,38.2,30.37,ESE,116,0.0,0.0,33,0.00,,SCT055,0.00,VWS V14.01,2013-09-28 20:48:00,
2013-09-28 16:53:00,68.4,38.2,30.37,ESE,105,0.0,0.0,33,0.00,,SCT055,0.00,VWS V14.01,2013-09-28 20:53:00,
2013-09-28 16:58:00,68.7,38.5,30.37,ESE,105,0.0,0.0,33,0.00,,SCT055,0.00,VWS V14.01,2013-09-28 20:58:00,
2013-09-28 17:03:00,68.5,38.3,30.37,ESE,105,0.0,0.0,33,0.00,,SCT055,0.00,VWS V14.01,2013-09-28 21:03:00,
2013-09-28 17:08:00,68.4,38.2,30.37,South,181,0.0,0.0,33,0.00,,SCT055,0.00,VWS V14.01,2013-09-28 21:08:00,
2013-09-28 17:13:00,68.2,38.0,30.37,South,175,0.0,0.0,33,0.00,,SCT055,0.00,VWS V14.01,2013-09-28 21:13:00,
2013-09-28 17:18:00,68.2,38.0,30.37,South,179,0.0,0.0,33,0.00,,SCT055,0.00,VWS V14.01,2013-09-28 21:18:00,
2013-09-28 17:23:00,67.3,38.0,30.37,South,179,0.0,0.0,34,0.00,,SCT055,0.00,VWS V14.01,2013-09-28 21:23:00,
2013-09-28 17:28:00,66.4,37.2,30.37,South,177,0.0,0.0,34,0.00,,SCT055,0.00,VWS V14.01,2013-09-28 21:28:00,
2013-09-28 17:33:00,65.8,37.5,30.37,South,177,0.0,0.0,35,0.00,,SCT055,0.00,VWS V14.01,2013-09-28 21:33:00,
2013-09-28 17:38:00,64.8,37.9,30.37,South,177,0.0,0.0,37,0.00,,SCT055,0.00,VWS V14.01,2013-09-28 21:38:00,
2013-09-28 17:43:00,64.8,37.9,30.37,South,177,0.0,0.0,37,0.00,,CLR,0.00,VWS V14.01,2013-09-28 21:43:00,
2013-09-28 17:48:00,64.0,38.6,30.37,South,177,0.0,0.0,39,0.00,,CLR,0.00,VWS V14.01,2013-09-28 21:48:00,
2013-09-28 17:53:00,64.0,38.6,30.37,ESE,112,0.0,0.0,39,0.00,,CLR,0.00,VWS V14.01,2013-09-28 21:53:00,
2013-09-28 17:58:00,63.3,38.6,30.31,ESE,112,0.0,0.0,40,0.00,,CLR,0.00,VWS V14.01,2013-09-28 21:58:00,
2013-09-28 18:03:00,63.1,39.1,30.31,ESE,112,0.0,0.0,41,0.00,,CLR,0.00,VWS V14.01,2013-09-28 22:03:00,
2013-09-28 18:08:00,63.1,39.1,30.31,ESE,112,0.0,0.0,41,0.00,,CLR,0.00,VWS V14.01,2013-09-28 22:08:00,
2013-09-28 18:13:00,62.4,39.7,30.31,ESE,112,0.0,0.0,43,0.00,,CLR,0.00,VWS V14.01,2013-09-28 22:13:00,
2013-09-28 18:18:00,61.3,39.3,30.31,ESE,112,0.0,0.0,44,0.00,,CLR,0.00,VWS V14.01,2013-09-28 22:18:00,
2013-09-28 18:23:00,61.0,38.9,30.31,ESE,112,0.0,0.0,44,0.00,,CLR,0.00,VWS V14.01,2013-09-28 22:23:00,
2013-09-28 18:28:00,60.4,39.0,30.31,ESE,112,0.0,0.0,45,0.00,,CLR,0.00,VWS V14.01,2013-09-28 22:28:00,
2013-09-28 18:33:00,59.7,38.9,30.31,ESE,112,0.0,0.0,46,0.00,,CLR,0.00,VWS V14.01,2013-09-28 22:33:00,
2013-09-28 18:38:00,59.0,39.9,30.31,ESE,112,0.0,0.0,49,0.00,,CLR,0.00,VWS V14.01,2013-09-28 22:38:00,
2013-09-28 18:43:00,58.6,40.1,30.31,ESE,112,0.0,0.0,50,0.00,,CLR,0.00,VWS V14.01,2013-09-28 22:43:00,
2013-09-28 18:48:00,58.1,40.1,30.31,ESE,112,0.0,0.0,51,0.00,,CLR,0.00,VWS V14.01,2013-09-28 22:48:00,
2013-09-28 18:53:00,58.1,40.1,30.31,ESE,112,0.0,0.0,51,0.00,,CLR,0.00,VWS V14.01,2013-09-28 22:53:00,
2013-09-28 18:58:00,57.4,39.9,30.31,ESE,112,0.0,0.0,52,0.00,,CLR,0.00,VWS V14.01,2013-09-28 22:58:00,
2013-09-28 19:03:00,56.7,40.2,30.31,ESE,112,0.0,0.0,54,0.00,,CLR,0.00,VWS V14.01,2013-09-28 23:03:00,
2013-09-28 19:08:00,56.7,40.2,30.31,ESE,112,0.0,0.0,54,0.00,,CLR,0.00,VWS V14.01,2013-09-28 23:08:00,
2013-09-28 19:13:00,56.1,40.7,30.31,ESE,112,0.0,0.0,56,0.00,,CLR,0.00,VWS V14.01,2013-09-28 23:13:00,
2013-09-28 19:19:00,56.1,40.7,30.31,North,357,0.0,0.0,56,0.00,,CLR,0.00,VWS V14.01,2013-09-28 23:19:00,
2013-09-28 19:24:00,55.4,40.9,30.31,North,357,0.0,0.0,58,0.00,,CLR,0.00,VWS V14.01,2013-09-28 23:24:00,
2013-09-28 19:29:00,54.9,41.2,30.31,North,357,0.0,0.0,60,0.00,,CLR,0.00,VWS V14.01,2013-09-28 23:29:00,
2013-09-28 19:34:00,54.9,41.2,30.31,North,357,0.0,0.0,60,0.00,,CLR,0.00,VWS V14.01,2013-09-28 23:34:00,
2013-09-28 19:39:00,54.9,41.2,30.31,North,357,0.0,0.0,60,0.00,,CLR,0.00,VWS V14.01,2013-09-28 23:39:00,
2013-09-28 19:44:00,54.9,41.2,30.31,North,357,0.0,0.0,60,0.00,,CLR,0.00,VWS V14.01,2013-09-28 23:44:00,
2013-09-28 19:49:00,53.6,41.3,30.31,North,357,0.0,0.0,63,0.00,,CLR,0.00,VWS V14.01,2013-09-28 23:49:00,
2013-09-28 19:54:00,53.2,41.4,30.31,North,357,0.0,0.0,64,0.00,,CLR,0.00,VWS V14.01,2013-09-28 23:54:00,
2013-09-28 19:59:00,53.1,41.2,30.31,North,357,0.0,0.0,64,0.00,,CLR,0.00,VWS V14.01,2013-09-28 23:59:00,
2013-09-28 20:04:00,53.1,41.2,30.31,North,357,0.0,0.0,64,0.00,,CLR,0.00,VWS V14.01,2013-09-29 00:04:00,
2013-09-28 20:09:00,53.1,41.2,30.31,North,357,0.0,0.0,64,0.00,,CLR,0.00,VWS V14.01,2013-09-29 00:09:00,
2013-09-28 20:14:00,51.6,40.2,30.31,North,357,0.0,0.0,65,0.00,,CLR,0.00,VWS V14.01,2013-09-29 00:14:00,
2013-09-28 20:19:00,51.6,40.2,30.31,North,357,0.0,0.0,65,0.00,,CLR,0.00,VWS V14.01,2013-09-29 00:19:00,
2013-09-28 20:24:00,51.1,40.1,30.31,North,357,0.0,0.0,66,0.00,,CLR,0.00,VWS V14.01,2013-09-29 00:24:00,
2013-09-28 20:29:00,51.1,40.1,30.31,North,357,0.0,0.0,66,0.00,,CLR,0.00,VWS V14.01,2013-09-29 00:29:00,
2013-09-28 20:34:00,50.5,39.6,30.31,North,357,0.0,0.0,66,0.00,,CLR,0.00,VWS V14.01,2013-09-29 00:34:00,
2013-09-28 20:39:00,50.0,39.5,30.31,North,357,0.0,0.0,67,0.00,,CLR,0.00,VWS V14.01,2013-09-29 00:39:00,
2013-09-28 20:44:00,50.0,39.5,30.31,North,357,0.0,0.0,67,0.00,,CLR,0.00,VWS V14.01,2013-09-29 00:44:00,
2013-09-28 20:49:00,49.6,40.3,30.31,North,357,0.0,0.0,70,0.00,,CLR,0.00,VWS V14.01,2013-09-29 00:49:00,
2013-09-28 20:54:00,49.6,40.3,30.31,North,357,0.0,0.0,70,0.00,,CLR,0.00,VWS V14.01,2013-09-29 00:54:00,
2013-09-28 20:59:00,49.1,39.8,30.31,North,357,0.0,0.0,70,0.00,,CLR,0.00,VWS V14.01,2013-09-29 00:59:00,
2013-09-28 21:04:00,48.7,39.4,30.31,North,357,0.0,0.0,70,0.00,,CLR,0.00,VWS V14.01,2013-09-29 01:04:00,
2013-09-28 21:09:00,48.7,39.4,30.31,North,357,0.0,0.0,70,0.00,,CLR,0.00,VWS V14.01,2013-09-29 01:09:00,
2013-09-28 21:14:00,48.2,39.2,30.31,North,357,0.0,0.0,71,0.00,,CLR,0.00,VWS V14.01,2013-09-29 01:14:00,
2013-09-28 21:19:00,48.0,39.4,30.31,North,357,0.0,0.0,72,0.00,,CLR,0.00,VWS V14.01,2013-09-29 01:19:00,
2013-09-28 21:24:00,47.8,39.3,30.31,North,357,0.0,0.0,72,0.00,,CLR,0.00,VWS V14.01,2013-09-29 01:24:00,
2013-09-28 21:29:00,47.7,39.1,30.31,North,357,0.0,0.0,72,0.00,,CLR,0.00,VWS V14.01,2013-09-29 01:29:00,
2013-09-28 21:34:00,47.5,39.3,30.31,North,357,0.0,0.0,73,0.00,,CLR,0.00,VWS V14.01,2013-09-29 01:34:00,
2013-09-28 21:39:00,47.1,38.9,30.31,NNW,333,0.0,0.0,73,0.00,,CLR,0.00,VWS V14.01,2013-09-29 01:39:00,
2013-09-28 21:45:00,47.1,38.9,30.31,NNW,333,0.0,0.0,73,0.00,,CLR,0.00,VWS V14.01,2013-09-29 01:45:00,
2013-09-28 21:50:00,46.8,38.9,30.31,NNW,333,0.0,0.0,74,0.00,,CLR,0.00,VWS V14.01,2013-09-29 01:50:00,
2013-09-28 21:55:00,46.8,38.9,30.31,NNW,333,0.0,0.0,74,0.00,,CLR,0.00,VWS V14.01,2013-09-29 01:55:00,
2013-09-28 22:00:00,46.6,38.8,30.31,NNW,333,0.0,0.0,74,0.00,,CLR,0.00,VWS V14.01,2013-09-29 02:00:00,
2013-09-28 22:05:00,46.2,38.8,30.31,NNW,333,0.0,0.0,75,0.00,,CLR,0.00,VWS V14.01,2013-09-29 02:05:00,
2013-09-28 22:10:00,46.2,38.8,30.31,NNW,333,0.0,0.0,75,0.00,,CLR,0.00,VWS V14.01,2013-09-29 02:10:00,
2013-09-28 22:15:00,45.9,38.4,30.31,NNW,333,0.0,0.0,75,0.00,,CLR,0.00,VWS V14.01,2013-09-29 02:15:00,
2013-09-28 22:20:00,45.9,38.7,30.31,NNW,333,0.0,0.0,76,0.00,,CLR,0.00,VWS V14.01,2013-09-29 02:20:00,
2013-09-28 22:25:00,45.5,38.4,30.31,NNW,333,0.0,0.0,76,0.00,,CLR,0.00,VWS V14.01,2013-09-29 02:25:00,
2013-09-28 22:30:00,45.5,38.4,30.31,NNW,333,0.0,0.0,76,0.00,,CLR,0.00,VWS V14.01,2013-09-29 02:30:00,
2013-09-28 22:35:00,45.3,38.2,30.31,NNW,333,0.0,0.0,76,0.00,,CLR,0.00,VWS V14.01,2013-09-29 02:35:00,
2013-09-28 22:40:00,45.1,38.0,30.31,NNW,333,0.0,0.0,76,0.00,,CLR,0.00,VWS V14.01,2013-09-29 02:40:00,
2013-09-28 22:45:00,45.1,38.0,30.31,NNW,333,0.0,0.0,76,0.00,,CLR,0.00,VWS V14.01,2013-09-29 02:45:00,
2013-09-28 22:50:00,44.8,38.0,30.31,NNW,333,0.0,0.0,77,0.00,,,0.00,VWS V14.01,2013-09-29 02:50:00,
2013-09-28 22:55:00,44.8,38.0,30.31,NNW,333,0.0,0.0,77,0.00,,,0.00,VWS V14.01,2013-09-29 02:55:00,
2013-09-28 23:00:00,44.4,38.0,30.31,NNW,333,0.0,0.0,78,0.00,,,0.00,VWS V14.01,2013-09-29 03:00:00,
2013-09-28 23:05:00,44.4,38.0,30.31,NNW,333,0.0,0.0,78,0.00,,,0.00,VWS V14.01,2013-09-29 03:05:00,
2013-09-28 23:10:00,44.4,38.0,30.31,NNW,333,0.0,0.0,78,0.00,,,0.00,VWS V14.01,2013-09-29 03:10:00,
2013-09-28 23:15:00,44.1,37.7,30.31,NNW,333,0.0,0.0,78,0.00,,,0.00,VWS V14.01,2013-09-29 03:15:00,
2013-09-28 23:20:00,44.1,37.7,30.31,NNW,333,0.0,0.0,78,0.00,,,0.00,VWS V14.01,2013-09-29 03:20:00,
2013-09-28 23:25:00,43.5,37.1,30.31,NNW,333,0.0,0.0,78,0.00,,,0.00,VWS V14.01,2013-09-29 03:25:00,
2013-09-28 23:30:00,43.5,37.1,30.31,NNW,333,0.0,0.0,78,0.00,,,0.00,VWS V14.01,2013-09-29 03:30:00,
2013-09-28 23:35:00,43.5,37.5,30.31,NNW,333,0.0,0.0,79,0.00,,,0.00,VWS V14.01,2013-09-29 03:35:00,
2013-09-28 23:40:00,43.3,37.3,30.31,NNW,333,0.0,0.0,79,0.00,,,0.00,VWS V14.01,2013-09-29 03:40:00,
2013-09-28 23:45:00,43.3,37.3,30.31,NNW,333,0.0,0.0,79,0.00,,,0.00,VWS V14.01,2013-09-29 03:45:00,
2013-09-28 23:50:00,43.2,37.4,30.31,North,357,0.0,0.0,80,0.00,,,0.00,VWS V14.01,2013-09-29 03:50:00,
2013-09-28 23:55:00,43.2,37.4,30.31,North,357,0.0,0.0,80,0.00,,,0.00,VWS V14.01,2013-09-29 03:55:00,